Weather Display times are in UTC Format only
Valid From:    Region:
Series:          
Hours Ahead:
Location:
      
  Type Location Message Text Print selected items
VOLMET LLBG THIS IS BEN GURION VOLMET.
      TAF BEN GURION, VALID FROM 250000 TILL 260000, WIND 150 DEGREES, 4
      KNOTS, VISIBILITY 10 KILOMETERS OR MORE, CLOUD SCATTERED 3 THOUSAND 5
METAR LLBG METAR LLBG 250020Z VRB03KT 9999 BKN037 24/17 Q1014 NOSIG RMK REP AT
      2343Z 2000FT-WIND 310/10KT=
     
ATIS LLBG THIS IS BEN GURION, INFORMATION VICTOR.
      TIME 0020.
      EXPECT ILS APPROACH FOR ARRIVAL RUNWAY 12.
METAR LLET METAR LLET 242350Z NIL=
     
     
METAR LLHA METAR LLHA 242350Z NIL=
     
     
METAR LLIB METAR LLIB 242350Z NIL=
     
     
METAR LLOV METAR LLOV 242350Z NIL=
     
     
METAR LLSD METAR LLSD 242350Z NIL=
     
     
ATIS_E LLET THIS IS EILAT, INFORMATION ROMEO.
      TIME 1850.
      EXPECT NAESICA DAKAR APPROACH FOR ACTIVE RUNWAY 03.
SPECI LLIB SPECI LLIB 241117Z 01011KT CAVOK 31/15 Q1012=
     
     
SPECI LLOV SPECI LLOV 240830Z 03006KT CAVOK 25/14 Q1016=
     
     
SPECI LLHA SPECI LLHA 240330Z VRB01KT 9999 FEW034 22/16 Q1013=
     
     
SPECI LLET SPECI LLET 240230Z 02012KT CAVOK 25/16 Q1013 RMK SCT060=
     
     
SPECI LLSD SPECI LLSD 240210Z 32006KT 9999 SCT035 25/16 Q1014=